This is the latest recevied weather packets stored in our database for station/object OE-11061. If no packets are shown the sender has not sent any weather packets the latest 10 day(s).
| Time | Temp. | Humidity | Pressure | Rain* | Wind** | Luminosity | Snow |
|---|---|---|---|---|---|---|---|
| 1788261095 | 24.44° C | 49% | 1020.7 hPa | 0 mm | - | 784 W/m² | - |
| 1788260722 | 23.89° C | 47% | 1020.8 hPa | 0 mm | - | 836 W/m² | - |
| 1788260121 | 23.33° C | 53% | 1020.8 hPa | 0 mm | - | 560 W/m² | - |
| 1788259295 | 22.78° C | 46% | 1021.1 hPa | 0 mm | - | 642 W/m² | - |
| 1788258921 | 23.33° C | 51% | 1021 hPa | 0 mm | - | 515 W/m² | - |
| 1788258322 | 23.33° C | 49% | 1021.1 hPa | 0 mm | - | 575 W/m² | - |
| 1788257495 | 22.78° C | 51% | 1021.1 hPa | 0 mm | - | 695 W/m² | - |
| 1788257122 | 23.33° C | 46% | 1021 hPa | 0 mm | - | 747 W/m² | - |
| 1788256522 | 23.33° C | 49% | 1020.9 hPa | 0 mm | - | 747 W/m² | - |
| 1788255695 | 22.78° C | 49% | 1021.2 hPa | 0 mm | - | 717 W/m² | - |
| 1788255322 | 22.78° C | 50% | 1021.2 hPa | 0 mm | - | 695 W/m² | - |
| 1788254722 | 22.78° C | 52% | 1021.1 hPa | 0 mm | - | 680 W/m² | - |
| 1788253895 | 23.33° C | 55% | 1021.1 hPa | 0 mm | - | 695 W/m² | - |
| 1788253522 | 22.22° C | 54% | 1021.3 hPa | 0 mm | - | 642 W/m² | - |
| 1788252921 | 21.11° C | 56% | 1021.6 hPa | 0 mm | - | 620 W/m² | - |
| 1788252095 | 21.67° C | 59% | 1021.4 hPa | 0 mm | - | 597 W/m² | - |
| 1788251722 | 21.67° C | 56% | 1021.4 hPa | 0 mm | - | 575 W/m² | - |
| 1788251122 | 21.67° C | 60% | 1021.4 hPa | 0 mm | - | 545 W/m² | - |
| 1788250522 | 21.11° C | 56% | 1021.4 hPa | 0 mm | - | 530 W/m² | - |
| 1788249922 | 21.11° C | 65% | 1021.6 hPa | 0 mm | - | 500 W/m² | - |
| 1788249322 | 20° C | 64% | 1021.7 hPa | 0 mm | - | 478 W/m² | - |
| 1788248721 | 20° C | 65% | 1021.6 hPa | 0 mm | - | 448 W/m² | - |
| 1788248122 | 19.44° C | 68% | 1021.7 hPa | 0 mm | - | 426 W/m² | - |
| 1788247522 | 18.89° C | 64% | 1021.8 hPa | 0 mm | - | 403 W/m² | - |
| 1788246922 | 18.33° C | 66% | 1021.9 hPa | 0 mm | - | 373 W/m² | - |
* Rain latest hour (hover to see other rain measurements)
** Current wind speed in m/s (hover to see current wind gust speed)